createdAt,value
2022-10-11T00:00:53.412Z,63.04
2022-10-11T00:03:20.718Z,63.11
2022-10-11T00:05:47.548Z,63.49
2022-10-11T00:08:14.471Z,62.86
2022-10-11T00:10:41.348Z,62.98
2022-10-11T00:13:08.513Z,62.97
2022-10-11T00:15:35.424Z,62.97
2022-10-11T00:18:05.208Z,62.65
2022-10-11T00:20:32.150Z,62.51
2022-10-11T00:22:58.823Z,62.84
2022-10-11T00:25:25.742Z,62.83
2022-10-11T00:27:52.375Z,62.53
2022-10-11T00:30:19.115Z,63.22
2022-10-11T00:32:45.708Z,62.81
2022-10-11T00:35:12.287Z,62.98
2022-10-11T00:37:39.435Z,63.06
2022-10-11T00:40:10.032Z,63.52
2022-10-11T00:42:36.788Z,63.15
2022-10-11T00:45:42.499Z,63.01
2022-10-11T00:48:17.301Z,63.20
2022-10-11T00:50:44.012Z,63.27
2022-10-11T00:53:12.267Z,63.33
2022-10-11T00:55:50.937Z,62.81
2022-10-11T00:58:18.731Z,62.93
2022-10-11T01:00:45.445Z,63.14
2022-10-11T01:03:12.298Z,63.18
2022-10-11T01:05:40.004Z,63.02
2022-10-11T01:08:08.302Z,63.44
2022-10-11T01:10:35.356Z,63.60
2022-10-11T01:13:38.544Z,63.70
2022-10-11T01:16:17.340Z,63.76
2022-10-11T01:19:04.457Z,63.74
2022-10-11T01:21:48.290Z,63.67
2022-10-11T01:24:40.774Z,63.75
2022-10-11T01:27:29.494Z,64.07
2022-10-11T01:30:18.315Z,64.03
2022-10-11T01:32:57.048Z,64.11
2022-10-11T01:35:42.071Z,63.82
2022-10-11T01:38:27.041Z,63.92
2022-10-11T01:41:00.252Z,63.48
2022-10-11T01:43:28.239Z,64.09
2022-10-11T01:45:58.136Z,63.96
2022-10-11T01:48:25.039Z,63.85
2022-10-11T01:50:54.951Z,63.88
2022-10-11T01:54:03.217Z,63.77
2022-10-11T01:57:03.458Z,63.64
2022-10-11T01:59:48.241Z,64.07
2022-10-11T02:02:41.001Z,64.16
2022-10-11T02:05:29.449Z,64.26
2022-10-11T02:08:18.365Z,64.48
2022-10-11T02:10:51.959Z,64.79
2022-10-11T02:13:29.841Z,64.97
2022-10-11T02:16:01.850Z,64.88
2022-10-11T02:18:36.304Z,64.93
2022-10-11T02:21:07.128Z,64.96
2022-10-11T02:23:56.290Z,64.86
2022-10-11T02:26:24.969Z,64.96
2022-10-11T02:28:55.808Z,64.87
2022-10-11T02:31:22.880Z,64.58
2022-10-11T02:34:17.241Z,64.43
2022-10-11T02:36:50.754Z,64.78
2022-10-11T02:39:25.944Z,64.64
2022-10-11T02:41:56.450Z,64.87
2022-10-11T02:44:40.458Z,64.77
2022-10-11T02:47:08.970Z,65.13
2022-10-11T02:49:36.336Z,65.10
2022-10-11T02:52:05.781Z,64.93
2022-10-11T02:54:32.681Z,65.35
2022-10-11T02:56:59.260Z,65.44
2022-10-11T02:59:25.878Z,65.41
2022-10-11T03:01:52.583Z,65.51
2022-10-11T03:04:19.379Z,65.04
2022-10-11T03:06:45.949Z,65.32
2022-10-11T03:09:12.560Z,65.34
2022-10-11T03:11:39.192Z,65.25
2022-10-11T03:14:05.833Z,65.25
2022-10-11T03:16:32.546Z,65.63
2022-10-11T03:18:59.137Z,65.69
2022-10-11T03:21:28.044Z,65.70
2022-10-11T03:23:54.642Z,65.76
2022-10-11T03:26:21.277Z,65.76
2022-10-11T03:28:48.066Z,65.44
2022-10-11T03:31:14.813Z,65.48
2022-10-11T03:33:41.466Z,65.41
2022-10-11T03:36:11.108Z,65.53
2022-10-11T03:38:37.850Z,65.89
2022-10-11T03:41:04.502Z,65.52
2022-10-11T03:43:31.615Z,65.58
2022-10-11T03:45:58.150Z,65.52
2022-10-11T03:48:24.737Z,65.46
2022-10-11T03:50:51.306Z,64.99
2022-10-11T03:53:17.930Z,65.33
2022-10-11T03:55:44.503Z,65.57
2022-10-11T03:58:11.083Z,65.88
2022-10-11T04:00:37.897Z,65.54
2022-10-11T04:03:04.648Z,66.10
2022-10-11T04:05:31.624Z,65.79
2022-10-11T04:07:59.306Z,66.29
2022-10-11T04:10:26.060Z,65.96
2022-10-11T04:12:52.651Z,66.00
2022-10-11T04:15:19.426Z,65.98
2022-10-11T04:17:46.551Z,66.22
2022-10-11T04:20:13.179Z,66.35
2022-10-11T04:22:39.848Z,66.75
2022-10-11T04:25:08.145Z,66.79
2022-10-11T04:27:35.241Z,66.69
2022-10-11T04:30:02.025Z,66.41
2022-10-11T04:32:28.616Z,66.52
2022-10-11T04:34:55.384Z,66.77
2022-10-11T04:37:22.024Z,66.75
2022-10-11T04:39:48.632Z,67.04
2022-10-11T04:42:16.398Z,66.93
2022-10-11T04:44:43.040Z,66.64
2022-10-11T04:47:09.700Z,66.75
2022-10-11T04:49:36.383Z,67.01
2022-10-11T04:52:03.343Z,66.89
2022-10-11T04:54:30.015Z,66.61
2022-10-11T04:56:56.722Z,66.74
2022-10-11T04:59:23.445Z,66.83
2022-10-11T05:01:50.356Z,66.86
2022-10-11T05:04:17.163Z,67.19
2022-10-11T05:06:43.735Z,67.49
2022-10-11T05:09:10.458Z,67.18
2022-10-11T05:11:37.187Z,67.25
2022-10-11T05:14:03.971Z,67.47
2022-10-11T05:16:31.409Z,67.93
2022-10-11T05:18:58.061Z,67.19
2022-10-11T05:21:29.310Z,67.40
2022-10-11T05:23:56.941Z,68.14
2022-10-11T05:26:27.295Z,67.24
2022-10-11T05:28:55.200Z,67.50
2022-10-11T05:31:22.252Z,67.57
2022-10-11T05:33:48.911Z,67.33
2022-10-11T05:36:15.756Z,67.18
2022-10-11T05:38:42.470Z,67.44
2022-10-11T05:41:10.578Z,67.40
2022-10-11T05:43:37.257Z,67.95
2022-10-11T05:46:04.303Z,68.43
2022-10-11T05:48:31.110Z,68.54
2022-10-11T05:51:06.364Z,68.56
2022-10-11T05:53:33.399Z,68.24
2022-10-11T05:56:00.259Z,68.75
2022-10-11T05:58:27.415Z,68.61
2022-10-11T06:00:54.826Z,68.70
2022-10-11T06:03:21.602Z,68.48
2022-10-11T06:05:50.401Z,68.01
2022-10-11T06:08:18.799Z,67.70
2022-10-11T06:10:45.547Z,67.88
2022-10-11T06:13:12.181Z,67.99
2022-10-11T06:15:39.512Z,67.95
2022-10-11T06:18:06.480Z,67.72
2022-10-11T06:20:33.094Z,68.51
2022-10-11T06:22:59.859Z,67.09
2022-10-11T06:25:26.485Z,67.81
2022-10-11T06:27:53.121Z,67.92
2022-10-11T06:30:19.847Z,68.29
2022-10-11T06:32:46.403Z,68.56
2022-10-11T06:35:13.464Z,68.67
2022-10-11T06:37:40.183Z,67.83
2022-10-11T06:40:07.418Z,67.67
2022-10-11T06:42:34.082Z,66.43
2022-10-11T06:45:00.669Z,66.22
2022-10-11T06:47:27.451Z,65.55
2022-10-11T06:49:54.227Z,65.99
2022-10-11T06:52:20.840Z,66.15
2022-10-11T06:54:47.496Z,65.56
2022-10-11T06:57:14.217Z,65.38
2022-10-11T06:59:42.954Z,65.68
2022-10-11T07:02:10.315Z,65.61
2022-10-11T07:04:37.150Z,65.60
2022-10-11T07:07:03.837Z,64.50
2022-10-11T07:09:30.962Z,64.61
2022-10-11T07:11:57.692Z,64.91
2022-10-11T07:14:24.369Z,65.01
2022-10-11T07:16:51.016Z,65.08
2022-10-11T07:19:17.652Z,64.39
2022-10-11T07:21:44.387Z,65.00
2022-10-11T07:24:11.022Z,64.53
2022-10-11T07:26:38.809Z,64.25
2022-10-11T07:29:10.043Z,63.78
2022-10-11T07:31:38.724Z,64.05
2022-10-11T07:34:05.571Z,64.35
2022-10-11T07:36:32.283Z,64.08
2022-10-11T07:39:01.404Z,63.88
2022-10-11T07:41:28.335Z,63.75
2022-10-11T07:43:55.216Z,63.59
2022-10-11T07:46:22.059Z,63.67
2022-10-11T07:48:50.231Z,63.48
2022-10-11T07:51:22.795Z,63.36
2022-10-11T07:53:57.276Z,62.90
2022-10-11T07:56:28.725Z,63.19
2022-10-11T07:59:00.853Z,62.85
2022-10-11T08:01:31.286Z,63.29
2022-10-11T08:03:59.103Z,62.92
2022-10-11T08:06:30.340Z,62.83
2022-10-11T08:08:58.755Z,62.83
2022-10-11T08:11:28.607Z,62.57
2022-10-11T08:13:57.724Z,61.92
2022-10-11T08:16:24.568Z,62.25
2022-10-11T08:18:51.476Z,62.87
2022-10-11T08:21:19.072Z,62.12
2022-10-11T08:23:46.180Z,62.40
2022-10-11T08:26:12.936Z,62.59
2022-10-11T08:28:39.814Z,62.81
2022-10-11T08:31:07.573Z,62.67
2022-10-11T08:33:34.313Z,62.16
2022-10-11T08:36:05.384Z,62.73
2022-10-11T08:38:33.099Z,63.09
2022-10-11T08:41:01.323Z,62.33
2022-10-11T08:43:53.095Z,61.68
2022-10-11T08:46:26.020Z,61.50
2022-10-11T08:48:53.380Z,61.19
2022-10-11T08:51:25.537Z,60.91
2022-10-11T08:54:00.545Z,60.17
2022-10-11T08:56:32.596Z,60.66
2022-10-11T08:59:06.920Z,60.26
2022-10-11T09:01:36.097Z,59.93
2022-10-11T09:04:04.070Z,59.63
2022-10-11T09:06:38.603Z,59.35
2022-10-11T09:09:17.795Z,59.34
2022-10-11T09:12:14.205Z,58.54
2022-10-11T09:14:54.326Z,58.59
2022-10-11T09:17:39.557Z,58.53
2022-10-11T09:20:18.367Z,57.96
2022-10-11T09:22:56.891Z,58.03
2022-10-11T09:25:33.707Z,57.12
2022-10-11T09:28:04.160Z,56.75
2022-10-11T09:30:33.114Z,57.36
2022-10-11T09:33:10.540Z,57.13
2022-10-11T09:35:42.774Z,56.76
2022-10-11T09:38:21.568Z,56.37
2022-10-11T09:40:59.107Z,55.76
2022-10-11T09:43:25.847Z,55.42
2022-10-11T09:45:52.489Z,54.96
2022-10-11T09:48:27.473Z,54.50
2022-10-11T09:51:08.468Z,53.99
2022-10-11T09:53:57.535Z,53.33
2022-10-11T09:56:28.129Z,53.66
2022-10-11T09:59:09.213Z,52.58
2022-10-11T10:01:36.782Z,53.09
2022-10-11T10:04:12.896Z,52.47
2022-10-11T10:06:40.293Z,51.61
2022-10-11T10:09:31.110Z,51.77
2022-10-11T10:11:58.159Z,51.75
2022-10-11T10:14:29.014Z,51.54
2022-10-11T10:17:15.656Z,51.78
2022-10-11T10:19:57.002Z,51.08
2022-10-11T10:22:27.483Z,51.07
2022-10-11T10:24:56.206Z,50.68
2022-10-11T10:27:28.589Z,50.47
2022-10-11T10:30:15.864Z,49.81
2022-10-11T10:32:51.129Z,49.69
2022-10-11T10:35:41.919Z,49.65
2022-10-11T10:38:19.125Z,48.67
2022-10-11T10:40:52.145Z,48.66
2022-10-11T10:43:24.564Z,48.06
2022-10-11T10:46:16.205Z,48.00
2022-10-11T10:49:34.402Z,47.65
2022-10-11T10:52:06.914Z,45.96
2022-10-11T10:54:56.824Z,46.06
2022-10-11T10:57:46.133Z,45.63
2022-10-11T11:00:19.545Z,45.39
2022-10-11T11:03:05.860Z,45.99
2022-10-11T11:05:48.404Z,46.27
2022-10-11T11:08:43.237Z,45.31
2022-10-11T11:11:43.203Z,45.15
2022-10-11T11:14:45.242Z,46.02
2022-10-11T11:17:35.744Z,45.77
2022-10-11T11:20:14.509Z,46.04
2022-10-11T11:22:51.077Z,47.59
2022-10-11T11:25:44.827Z,47.58
2022-10-11T11:28:27.053Z,49.87
2022-10-11T11:31:09.003Z,51.15
2022-10-11T11:33:59.470Z,49.59
2022-10-11T11:36:47.217Z,51.41
2022-10-11T11:39:26.221Z,52.56
2022-10-11T11:42:01.545Z,53.18
2022-10-11T11:44:35.913Z,52.87
2022-10-11T11:47:31.410Z,48.61
2022-10-11T11:50:25.038Z,48.04
2022-10-11T11:53:00.069Z,48.90
2022-10-11T11:56:13.821Z,48.53
2022-10-11T11:59:06.626Z,50.45
2022-10-11T12:01:43.916Z,51.65
2022-10-11T12:04:37.135Z,49.64
2022-10-11T12:07:16.416Z,51.39
2022-10-11T12:09:50.628Z,48.38
2022-10-11T12:12:36.460Z,49.49
2022-10-11T12:15:18.694Z,48.08
2022-10-11T12:18:03.295Z,48.77
2022-10-11T12:20:32.637Z,51.17
2022-10-11T12:23:04.384Z,52.18
2022-10-11T12:25:39.930Z,51.56
2022-10-11T12:28:37.829Z,52.70
2022-10-11T12:31:16.870Z,51.88
2022-10-11T12:34:03.982Z,50.70
2022-10-11T12:36:50.295Z,51.71
2022-10-11T12:39:19.911Z,51.45
2022-10-11T12:42:07.101Z,51.23
2022-10-11T12:44:36.327Z,50.41
2022-10-11T12:47:36.069Z,52.43
2022-10-11T12:50:03.159Z,47.97
2022-10-11T12:54:57.093Z,51.54
2022-10-11T12:57:57.268Z,52.87
2022-10-11T13:00:31.766Z,52.47
2022-10-11T13:03:04.999Z,53.56
2022-10-11T13:05:45.012Z,52.46
2022-10-11T13:08:19.018Z,53.26
2022-10-11T13:10:47.698Z,51.88
2022-10-11T13:13:22.966Z,52.98
2022-10-11T13:15:52.209Z,53.77
2022-10-11T13:18:22.394Z,53.68
2022-10-11T13:20:50.417Z,54.08
2022-10-11T13:23:29.454Z,50.60
2022-10-11T13:25:57.360Z,53.82
2022-10-11T13:28:24.341Z,53.32
2022-10-11T13:30:57.741Z,53.56
2022-10-11T13:33:33.970Z,54.04
2022-10-11T13:36:03.981Z,53.79
2022-10-11T13:38:34.152Z,52.50
2022-10-11T13:41:07.510Z,54.39
2022-10-11T13:43:35.206Z,54.61
2022-10-11T13:46:05.191Z,53.71
2022-10-11T13:48:38.746Z,51.34
2022-10-11T13:51:30.217Z,49.98
2022-10-11T13:54:01.031Z,52.94
2022-10-11T13:56:29.963Z,52.29
2022-10-11T13:58:56.786Z,51.52
2022-10-11T14:01:27.986Z,52.28
2022-10-11T14:04:01.421Z,51.59
2022-10-11T14:06:51.431Z,52.59
2022-10-11T14:09:33.942Z,53.62
2022-10-11T14:12:40.746Z,49.94
2022-10-11T14:15:26.210Z,48.41
2022-10-11T14:17:53.191Z,48.03
2022-10-11T14:20:40.208Z,49.28
2022-10-11T14:23:07.509Z,49.16
2022-10-11T14:25:34.694Z,49.43
2022-10-11T14:28:02.638Z,49.15
2022-10-11T14:30:31.750Z,49.18
2022-10-11T14:33:01.739Z,51.54
2022-10-11T14:35:32.272Z,52.40
2022-10-11T14:37:59.089Z,50.90
2022-10-11T14:40:29.925Z,52.53
2022-10-11T14:42:57.046Z,53.69
2022-10-11T14:45:23.835Z,53.18
2022-10-11T14:47:52.465Z,50.18
2022-10-11T14:50:42.660Z,53.24
2022-10-11T14:53:10.474Z,54.21
2022-10-11T14:55:39.654Z,54.00
2022-10-11T14:58:09.502Z,54.40
2022-10-11T15:00:37.251Z,54.00
2022-10-11T15:03:05.290Z,54.91
2022-10-11T15:05:34.250Z,54.58
2022-10-11T15:08:02.277Z,51.68
2022-10-11T15:10:33.952Z,54.39
2022-10-11T15:13:02.711Z,55.08
2022-10-11T15:15:32.763Z,52.59
2022-10-11T15:18:01.283Z,52.79
2022-10-11T15:20:31.618Z,52.56
2022-10-11T15:22:59.440Z,53.12
2022-10-11T15:25:27.633Z,51.96
2022-10-11T15:27:54.296Z,51.78
2022-10-11T15:30:22.486Z,54.08
2022-10-11T15:32:50.133Z,54.42
2022-10-11T15:35:17.792Z,54.52
2022-10-11T15:37:44.953Z,54.88
2022-10-11T15:40:19.582Z,54.79
2022-10-11T15:42:47.041Z,55.20
2022-10-11T15:45:15.048Z,55.34
2022-10-11T15:47:41.736Z,55.06
2022-10-11T15:50:36.822Z,54.59
2022-10-11T15:53:16.350Z,55.30
2022-10-11T15:55:49.678Z,55.06
2022-10-11T15:58:29.050Z,54.57
2022-10-11T16:00:57.601Z,54.74
2022-10-11T16:03:29.786Z,55.13
2022-10-11T16:06:01.079Z,55.46
2022-10-11T16:08:30.770Z,53.25
2022-10-11T16:10:59.455Z,54.57
2022-10-11T16:13:26.417Z,52.97
2022-10-11T16:15:53.335Z,52.13
2022-10-11T16:18:22.215Z,54.06
2022-10-11T16:20:51.935Z,53.92
2022-10-11T16:23:20.243Z,54.96
2022-10-11T16:25:56.208Z,53.55
2022-10-11T16:28:23.869Z,53.46
2022-10-11T16:30:50.683Z,53.57
2022-10-11T16:33:17.428Z,53.00
2022-10-11T16:35:44.354Z,52.83
2022-10-11T16:38:12.869Z,54.69
2022-10-11T16:40:40.341Z,52.64
2022-10-11T16:43:08.071Z,52.49
2022-10-11T16:45:41.974Z,51.68
2022-10-11T16:48:08.607Z,52.30
2022-10-11T16:50:39.243Z,52.92
2022-10-11T16:53:06.477Z,52.78
2022-10-11T16:55:33.287Z,53.03
2022-10-11T16:58:00.012Z,53.34
2022-10-11T17:03:08.727Z,53.13
2022-10-11T17:05:37.052Z,53.62
2022-10-11T17:08:03.750Z,53.98
2022-10-11T17:10:39.664Z,53.97
2022-10-11T17:13:07.438Z,54.05
2022-10-11T17:15:36.038Z,54.30
2022-10-11T17:18:03.498Z,54.51
2022-10-11T17:20:30.367Z,54.75
2022-10-11T17:22:58.070Z,54.80
2022-10-11T17:25:25.371Z,54.70
2022-10-11T17:27:55.737Z,55.20
2022-10-11T17:30:23.729Z,55.17
2022-10-11T17:32:53.589Z,55.33
2022-10-11T17:35:20.412Z,55.39
2022-10-11T17:37:47.144Z,55.55
2022-10-11T17:40:14.110Z,55.85
2022-10-11T17:42:41.266Z,56.05
2022-10-11T17:45:08.322Z,56.56
2022-10-11T17:47:35.444Z,56.47
2022-10-11T17:50:02.321Z,56.72
2022-10-11T17:52:30.109Z,57.02
2022-10-11T17:54:56.963Z,56.94
2022-10-11T17:57:23.642Z,57.22
2022-10-11T17:59:50.637Z,57.37
2022-10-11T18:02:19.815Z,57.79
2022-10-11T18:04:46.750Z,58.32
2022-10-11T18:07:13.623Z,58.58
2022-10-11T18:09:41.889Z,58.42
2022-10-11T18:12:08.673Z,58.71
2022-10-11T18:14:35.889Z,58.69
2022-10-11T18:17:02.851Z,57.32
2022-10-11T18:19:29.864Z,57.66
2022-10-11T18:21:56.782Z,58.29
2022-10-11T18:24:23.869Z,58.99
2022-10-11T18:26:51.840Z,59.43
2022-10-11T18:29:18.803Z,58.74
2022-10-11T18:31:46.726Z,58.74
2022-10-11T18:34:14.405Z,58.60
2022-10-11T18:36:43.071Z,59.08
2022-10-11T18:39:13.358Z,59.64
2022-10-11T18:41:45.783Z,59.99
2022-10-11T18:44:35.277Z,60.06
2022-10-11T18:47:03.210Z,59.93
2022-10-11T18:49:32.858Z,60.16
2022-10-11T18:51:59.858Z,60.28
2022-10-11T18:54:27.037Z,60.66
2022-10-11T18:56:55.260Z,61.22
2022-10-11T18:59:23.741Z,61.26
2022-10-11T19:01:53.716Z,61.18
2022-10-11T19:04:20.885Z,61.22
2022-10-11T19:06:50.631Z,61.02
2022-10-11T19:09:22.184Z,61.31
2022-10-11T19:11:55.889Z,61.67
2022-10-11T19:14:30.357Z,61.66
2022-10-11T19:16:57.838Z,61.55
2022-10-11T19:19:27.238Z,61.78
2022-10-11T19:21:54.463Z,61.93
2022-10-11T19:24:23.775Z,61.73
2022-10-11T19:26:58.391Z,61.92
2022-10-11T19:29:28.958Z,61.85
2022-10-11T19:32:00.788Z,61.70
2022-10-11T19:34:28.147Z,61.81
2022-10-11T19:36:56.577Z,62.01
2022-10-11T19:39:24.797Z,62.16
2022-10-11T19:41:53.287Z,62.46
2022-10-11T19:44:20.611Z,62.08
2022-10-11T19:46:52.782Z,62.59
2022-10-11T19:49:24.133Z,62.44
2022-10-11T19:51:55.334Z,62.22
2022-10-11T19:54:23.613Z,62.15
2022-10-11T19:56:51.743Z,62.43
2022-10-11T19:59:19.112Z,62.89
2022-10-11T20:01:51.899Z,63.47
2022-10-11T20:04:51.013Z,62.84
2022-10-11T20:07:07.753Z,63.13
2022-10-11T20:09:35.267Z,63.15
2022-10-11T20:12:04.493Z,63.33
2022-10-11T20:14:31.722Z,62.92
2022-10-11T20:16:58.524Z,62.79
2022-10-11T20:19:31.352Z,62.56
2022-10-11T20:21:59.124Z,63.04
2022-10-11T20:24:29.090Z,63.75
2022-10-11T20:26:56.471Z,63.86
2022-10-11T20:29:27.138Z,63.74
2022-10-11T20:31:53.907Z,63.97
2022-10-11T20:34:20.552Z,63.46
2022-10-11T20:36:49.239Z,62.79
2022-10-11T20:39:16.506Z,63.02
2022-10-11T20:41:54.036Z,63.06
2022-10-11T20:44:29.489Z,63.58
2022-10-11T20:47:03.709Z,63.78
2022-10-11T20:49:36.409Z,63.68
2022-10-11T20:52:08.565Z,63.54
2022-10-11T20:54:41.038Z,63.86
2022-10-11T20:57:10.880Z,63.93
2022-10-11T20:59:40.872Z,64.34
2022-10-11T21:02:16.654Z,65.03
2022-10-11T21:04:50.165Z,64.99
2022-10-11T21:07:17.485Z,65.27
2022-10-11T21:09:45.711Z,64.59
2022-10-11T21:12:12.931Z,64.53
2022-10-11T21:14:39.615Z,64.78
2022-10-11T21:17:06.568Z,64.49
2022-10-11T21:19:33.256Z,64.65
2022-10-11T21:21:59.908Z,64.79
2022-10-11T21:24:26.727Z,64.71
2022-10-11T21:26:58.149Z,64.48
2022-10-11T21:29:27.622Z,64.84
2022-10-11T21:31:56.597Z,64.74
2022-10-11T21:34:23.419Z,64.98
2022-10-11T21:36:50.487Z,64.90
2022-10-11T21:39:20.148Z,64.43
2022-10-11T21:41:47.062Z,64.71
2022-10-11T21:44:15.834Z,65.22
2022-10-11T21:49:31.152Z,65.71
2022-10-11T21:52:05.884Z,65.69
2022-10-11T21:54:32.613Z,65.90
2022-10-11T21:56:59.435Z,65.61
2022-10-11T21:59:26.154Z,66.17
2022-10-11T22:01:52.795Z,66.30
2022-10-11T22:04:19.831Z,66.21
2022-10-11T22:06:46.434Z,66.32
2022-10-11T22:09:13.338Z,66.68
2022-10-11T22:11:40.834Z,66.44
2022-10-11T22:14:07.634Z,66.62
2022-10-11T22:16:35.339Z,67.22
2022-10-11T22:19:02.270Z,67.49
2022-10-11T22:21:29.021Z,67.38
2022-10-11T22:23:55.648Z,67.88
2022-10-11T22:26:25.680Z,68.05
2022-10-11T22:28:53.542Z,68.21
2022-10-11T22:31:21.794Z,67.78
2022-10-11T22:33:54.002Z,68.00
2022-10-11T22:36:20.957Z,67.90
2022-10-11T22:38:47.787Z,68.11
2022-10-11T22:41:14.731Z,68.54
2022-10-11T22:43:42.349Z,68.83
2022-10-11T22:46:09.651Z,68.58
2022-10-11T22:48:36.403Z,68.72
2022-10-11T22:51:03.664Z,67.86
2022-10-11T22:53:31.001Z,68.11
2022-10-11T22:55:58.165Z,68.40
2022-10-11T22:58:26.252Z,68.92
2022-10-11T23:00:53.169Z,68.59
2022-10-11T23:03:20.156Z,68.42
2022-10-11T23:05:57.481Z,67.67
2022-10-11T23:08:24.746Z,68.11
2022-10-11T23:10:52.276Z,68.35
2022-10-11T23:13:20.080Z,67.51
2022-10-11T23:15:47.053Z,67.95
2022-10-11T23:18:15.924Z,67.79
2022-10-11T23:20:42.919Z,67.56
2022-10-11T23:23:09.627Z,68.00
2022-10-11T23:25:36.836Z,68.55
2022-10-11T23:28:03.812Z,68.87
2022-10-11T23:30:30.891Z,68.96
2022-10-11T23:32:57.775Z,68.37
2022-10-11T23:35:24.827Z,68.40
2022-10-11T23:37:54.196Z,68.96
2022-10-11T23:40:21.096Z,69.40
2022-10-11T23:42:49.067Z,69.02
2022-10-11T23:45:16.222Z,67.91
2022-10-11T23:47:43.177Z,67.17
2022-10-11T23:50:10.319Z,67.77
2022-10-11T23:52:38.375Z,67.73
2022-10-11T23:55:05.373Z,67.15
2022-10-11T23:57:33.286Z,67.30
2022-10-11T23:59:59.955Z,67.55
